createdAt,value
2023-01-26T00:00:07.856Z,795.00
2023-01-26T00:01:07.724Z,796.00
2023-01-26T00:02:07.741Z,798.00
2023-01-26T00:03:07.757Z,798.00
2023-01-26T00:04:07.796Z,796.00
2023-01-26T00:05:07.777Z,796.00
2023-01-26T00:06:07.787Z,794.00
2023-01-26T00:07:08.549Z,794.00
2023-01-26T00:08:07.790Z,795.00
2023-01-26T00:09:08.558Z,794.00
2023-01-26T00:10:07.941Z,798.00
2023-01-26T00:11:07.813Z,799.00
2023-01-26T00:12:07.818Z,795.00
2023-01-26T00:13:07.836Z,792.00
2023-01-26T00:14:07.832Z,789.00
2023-01-26T00:15:07.840Z,791.00
2023-01-26T00:16:07.903Z,791.00
2023-01-26T00:17:07.844Z,792.00
2023-01-26T00:18:07.871Z,793.00
2023-01-26T00:19:07.872Z,794.00
2023-01-26T00:20:07.935Z,791.00
2023-01-26T00:21:07.887Z,790.00
2023-01-26T00:22:07.887Z,789.00
2023-01-26T00:23:07.906Z,788.00
2023-01-26T00:24:07.956Z,786.00
2023-01-26T00:25:08.569Z,786.00
2023-01-26T00:26:07.927Z,784.00
2023-01-26T00:27:07.944Z,783.00
2023-01-26T00:28:07.955Z,783.00
2023-01-26T00:29:07.957Z,787.00
2023-01-26T00:30:08.006Z,788.00
2023-01-26T00:31:08.045Z,787.00
2023-01-26T00:32:07.987Z,788.00
2023-01-26T00:33:08.003Z,787.00
2023-01-26T00:34:08.003Z,782.00
2023-01-26T00:35:08.018Z,781.00
2023-01-26T00:36:08.031Z,778.00
2023-01-26T00:37:08.039Z,780.00
2023-01-26T00:38:08.062Z,779.00
2023-01-26T00:39:08.078Z,777.00
2023-01-26T00:40:08.263Z,776.00
2023-01-26T00:41:08.107Z,773.00
2023-01-26T00:42:08.119Z,775.00
2023-01-26T00:43:08.119Z,776.00
2023-01-26T00:44:08.141Z,776.00
2023-01-26T00:45:08.130Z,775.00
2023-01-26T00:46:08.132Z,777.00
2023-01-26T00:47:08.163Z,778.00
2023-01-26T00:48:08.168Z,778.00
2023-01-26T00:49:08.253Z,779.00
2023-01-26T00:50:08.310Z,781.00
2023-01-26T00:51:08.173Z,780.00
2023-01-26T00:52:08.184Z,777.00
2023-01-26T00:53:08.194Z,778.00
2023-01-26T00:54:08.205Z,775.00
2023-01-26T00:55:08.214Z,774.00
2023-01-26T00:56:08.214Z,774.00
2023-01-26T00:57:08.227Z,772.00
2023-01-26T00:58:08.237Z,770.00
2023-01-26T00:59:08.231Z,770.00
2023-01-26T01:00:08.455Z,770.00
2023-01-26T01:01:08.346Z,769.00
2023-01-26T01:02:08.344Z,768.00
2023-01-26T01:03:08.311Z,766.00
2023-01-26T01:04:08.295Z,762.00
2023-01-26T01:05:08.283Z,761.00
2023-01-26T01:06:09.070Z,763.00
2023-01-26T01:07:08.294Z,766.00
2023-01-26T01:08:08.304Z,765.00
2023-01-26T01:09:08.307Z,765.00
2023-01-26T01:10:08.632Z,765.00
2023-01-26T01:11:08.328Z,765.00
2023-01-26T01:12:08.329Z,766.00
2023-01-26T01:13:08.357Z,768.00
2023-01-26T01:14:08.358Z,767.00
2023-01-26T01:15:08.359Z,768.00
2023-01-26T01:16:08.420Z,768.00
2023-01-26T01:17:08.380Z,768.00
2023-01-26T01:18:08.376Z,767.00
2023-01-26T01:19:08.466Z,764.00
2023-01-26T01:20:08.596Z,761.00
2023-01-26T01:21:08.396Z,763.00
2023-01-26T01:22:08.404Z,760.00
2023-01-26T01:23:08.399Z,757.00
2023-01-26T01:24:08.477Z,755.00
2023-01-26T01:25:08.429Z,753.00
2023-01-26T01:26:08.415Z,752.00
2023-01-26T01:27:08.419Z,752.00
2023-01-26T01:28:08.418Z,752.00
2023-01-26T01:29:08.436Z,752.00
2023-01-26T01:30:08.664Z,750.00
2023-01-26T01:31:08.566Z,750.00
2023-01-26T01:32:08.451Z,751.00
2023-01-26T01:33:08.470Z,752.00
2023-01-26T01:34:08.520Z,749.00
2023-01-26T01:35:08.534Z,747.00
2023-01-26T01:36:08.466Z,749.00
2023-01-26T01:37:08.477Z,750.00
2023-01-26T01:38:08.485Z,747.00
2023-01-26T01:39:08.487Z,743.00
2023-01-26T01:40:08.688Z,743.00
2023-01-26T01:41:08.495Z,742.00
2023-01-26T01:42:08.520Z,743.00
2023-01-26T01:43:08.486Z,747.00
2023-01-26T01:44:08.497Z,749.00
2023-01-26T01:45:08.497Z,750.00
2023-01-26T01:46:08.516Z,749.00
2023-01-26T01:47:08.525Z,745.00
2023-01-26T04:19:10.189Z,687.00
2023-01-26T04:20:10.549Z,687.00
2023-01-26T04:21:10.272Z,692.00
2023-01-26T04:22:11.148Z,695.00
2023-01-26T04:23:10.312Z,694.00
2023-01-26T04:24:10.373Z,695.00
2023-01-26T04:25:10.377Z,694.00
2023-01-26T04:26:10.438Z,690.00
2023-01-26T04:27:10.498Z,687.00
2023-01-26T04:28:10.577Z,688.00
2023-01-26T04:29:10.619Z,690.00
2023-01-26T04:30:11.091Z,692.00
2023-01-26T04:35:11.644Z,695.00
2023-01-26T04:43:12.155Z,688.00
2023-01-26T04:44:11.478Z,689.00
2023-01-26T04:45:11.548Z,687.00
2023-01-26T04:46:11.620Z,686.00
2023-01-26T04:47:11.662Z,686.00
2023-01-26T04:48:11.712Z,684.00
2023-01-26T04:49:11.769Z,688.00
2023-01-26T04:50:12.157Z,688.00
2023-01-26T04:51:11.881Z,685.00
2023-01-26T04:52:11.926Z,685.00
2023-01-26T04:53:11.979Z,682.00
2023-01-26T04:54:12.028Z,682.00
2023-01-26T04:55:12.083Z,679.00
2023-01-26T04:56:12.145Z,678.00
2023-01-26T04:57:12.252Z,678.00
2023-01-26T04:58:12.244Z,678.00
2023-01-26T04:59:12.342Z,676.00
2023-01-26T05:00:12.716Z,673.00
2023-01-26T05:01:12.450Z,677.00
2023-01-26T05:02:12.484Z,677.00
2023-01-26T05:03:12.670Z,678.00
2023-01-26T05:04:12.644Z,679.00
2023-01-26T05:05:12.644Z,679.00
2023-01-26T05:06:12.703Z,678.00
2023-01-26T05:07:12.773Z,677.00
2023-01-26T05:08:12.802Z,676.00
2023-01-26T05:09:12.863Z,675.00
2023-01-26T05:10:15.603Z,677.00
2023-01-26T05:11:12.917Z,675.00
2023-01-26T05:12:12.921Z,673.00
2023-01-26T05:13:12.918Z,672.00
2023-01-26T05:14:12.894Z,670.00
2023-01-26T05:15:13.680Z,670.00
2023-01-26T05:16:12.923Z,670.00
2023-01-26T05:17:12.928Z,671.00
2023-01-26T05:18:12.883Z,670.00
2023-01-26T05:19:12.865Z,672.00
2023-01-26T05:20:13.148Z,671.00
2023-01-26T05:21:12.849Z,673.00
2023-01-26T05:22:12.904Z,672.00
2023-01-26T05:23:13.175Z,671.00
2023-01-26T05:24:12.853Z,671.00
2023-01-26T05:25:12.816Z,668.00
2023-01-26T05:26:12.824Z,668.00
2023-01-26T05:27:12.806Z,671.00
2023-01-26T05:28:12.810Z,668.00
2023-01-26T05:29:13.677Z,671.00
2023-01-26T05:30:14.746Z,672.00
2023-01-26T05:31:12.783Z,671.00
2023-01-26T05:32:12.854Z,671.00
2023-01-26T05:33:12.800Z,670.00
2023-01-26T05:34:12.770Z,670.00
2023-01-26T05:35:12.769Z,669.00
2023-01-26T05:36:12.750Z,669.00
2023-01-26T05:37:14.790Z,666.00
2023-01-26T05:38:12.938Z,666.00
2023-01-26T05:39:12.892Z,667.00
2023-01-26T05:40:13.216Z,666.00
2023-01-26T05:41:12.959Z,663.00
2023-01-26T05:42:12.980Z,661.00
2023-01-26T05:43:12.994Z,664.00
2023-01-26T05:44:13.011Z,664.00
2023-01-26T05:45:13.004Z,664.00
2023-01-26T05:46:13.124Z,665.00
2023-01-26T05:47:13.076Z,666.00
2023-01-26T05:48:13.061Z,668.00
2023-01-26T05:49:13.064Z,666.00
2023-01-26T05:50:13.421Z,665.00
2023-01-26T05:51:13.088Z,663.00
2023-01-26T05:52:13.104Z,662.00
2023-01-26T05:53:13.072Z,662.00
2023-01-26T05:54:13.088Z,661.00
2023-01-26T05:55:13.088Z,662.00
2023-01-26T05:56:13.089Z,661.00
2023-01-26T05:57:13.075Z,659.00
2023-01-26T05:58:13.090Z,660.00
2023-01-26T05:59:13.074Z,659.00
2023-01-26T06:00:13.308Z,658.00
2023-01-26T06:01:13.084Z,659.00
2023-01-26T06:02:13.141Z,660.00
2023-01-26T06:03:13.106Z,661.00
2023-01-26T06:04:13.131Z,659.00
2023-01-26T06:05:13.101Z,656.00
2023-01-26T06:06:13.096Z,654.00
2023-01-26T06:07:13.094Z,654.00
2023-01-26T06:08:13.095Z,655.00
2023-01-26T06:09:13.093Z,655.00
2023-01-26T06:10:13.406Z,651.00
2023-01-26T06:11:13.097Z,654.00
2023-01-26T06:12:13.085Z,655.00
2023-01-26T06:13:13.088Z,654.00
2023-01-26T06:14:13.097Z,655.00
2023-01-26T06:15:13.108Z,656.00
2023-01-26T06:16:13.108Z,654.00
2023-01-26T06:17:13.144Z,653.00
2023-01-26T06:18:13.142Z,653.00
2023-01-26T06:19:13.127Z,652.00
2023-01-26T06:20:13.336Z,651.00
2023-01-26T06:21:13.127Z,651.00
2023-01-26T06:22:13.142Z,651.00
2023-01-26T06:23:13.138Z,653.00
2023-01-26T06:24:13.160Z,655.00
2023-01-26T06:25:13.148Z,656.00
2023-01-26T06:26:13.142Z,661.00
2023-01-26T06:27:13.127Z,669.00
2023-01-26T06:28:13.137Z,679.00
2023-01-26T06:29:13.128Z,736.00
2023-01-26T06:30:13.482Z,769.00
2023-01-26T06:31:13.222Z,783.00
2023-01-26T06:32:13.180Z,820.00
2023-01-26T06:33:13.223Z,845.00
2023-01-26T06:34:13.290Z,931.00
2023-01-26T06:35:14.195Z,993.00
2023-01-26T06:36:13.410Z,1069.00
2023-01-26T06:37:13.446Z,1080.00
2023-01-26T06:38:13.576Z,1099.00
2023-01-26T06:39:13.544Z,1126.00
2023-01-26T06:40:13.687Z,1212.00
2023-01-26T06:41:13.585Z,1209.00
2023-01-26T06:42:13.609Z,1224.00
2023-01-26T06:43:13.652Z,1231.00
2023-01-26T06:44:13.655Z,1279.00
2023-01-26T06:45:13.667Z,1289.00
2023-01-26T06:46:13.780Z,1349.00
2023-01-26T06:47:13.712Z,1367.00
2023-01-26T06:48:14.698Z,1403.00
2023-01-26T06:49:13.766Z,1420.00
2023-01-26T06:50:13.908Z,1434.00
2023-01-26T06:51:13.762Z,1449.00
2023-01-26T06:52:13.798Z,1504.00
2023-01-26T06:53:13.802Z,1557.00
2023-01-26T06:54:13.801Z,1578.00
2023-01-26T06:55:13.778Z,1588.00
2023-01-26T06:56:13.783Z,1605.00
2023-01-26T06:57:13.775Z,1684.00
2023-01-26T06:58:14.733Z,1693.00
2023-01-26T06:59:13.819Z,1705.00
2023-01-26T07:00:13.907Z,1724.00
2023-01-26T07:01:13.887Z,1749.00
2023-01-26T07:02:13.926Z,1775.00
2023-01-26T07:03:13.916Z,1797.00
2023-01-26T07:04:14.042Z,1819.00
2023-01-26T07:05:14.026Z,1898.00
2023-01-26T07:06:14.094Z,1913.00
2023-01-26T07:07:15.140Z,1934.00
2023-01-26T07:08:14.192Z,1999.00
2023-01-26T07:09:14.423Z,2030.00
2023-01-26T07:10:14.326Z,2059.00
2023-01-26T07:11:14.381Z,2101.00
2023-01-26T07:12:14.444Z,2155.00
2023-01-26T07:13:14.500Z,2187.00
2023-01-26T07:14:14.535Z,2210.00
2023-01-26T07:15:14.576Z,2228.00
2023-01-26T07:16:14.629Z,2290.00
2023-01-26T07:17:14.654Z,1530.00
2023-01-26T07:18:14.711Z,1291.00
2023-01-26T07:19:14.715Z,1216.00
2023-01-26T07:20:14.725Z,1308.00
2023-01-26T07:21:14.770Z,1404.00
2023-01-26T07:22:14.836Z,1264.00
2023-01-26T07:23:14.834Z,1240.00
2023-01-26T07:24:14.934Z,1286.00
2023-01-26T07:25:14.923Z,1289.00
2023-01-26T07:26:14.932Z,1289.00
2023-01-26T07:27:14.952Z,1236.00
2023-01-26T07:28:15.014Z,1219.00
2023-01-26T07:29:15.061Z,1222.00
2023-01-26T07:30:15.154Z,1256.00
2023-01-26T07:31:15.176Z,1267.00
2023-01-26T07:32:15.119Z,1305.00
2023-01-26T07:33:15.130Z,1327.00
2023-01-26T07:34:15.147Z,1373.00
2023-01-26T07:35:15.197Z,1415.00
2023-01-26T07:36:15.262Z,1446.00
2023-01-26T07:37:15.308Z,1463.00
2023-01-26T07:38:15.335Z,1472.00
2023-01-26T07:39:15.364Z,1484.00
2023-01-26T07:40:15.379Z,1477.00
2023-01-26T07:41:16.221Z,1481.00
2023-01-26T07:42:15.395Z,1483.00
2023-01-26T07:43:15.400Z,1489.00
2023-01-26T07:44:15.431Z,1501.00
2023-01-26T07:45:15.471Z,1539.00
2023-01-26T07:46:15.539Z,1549.00
2023-01-26T07:47:15.589Z,1554.00
2023-01-26T07:48:15.654Z,1550.00
2023-01-26T07:49:15.707Z,1564.00
2023-01-26T07:50:15.773Z,1564.00
2023-01-26T07:51:15.798Z,956.00
2023-01-26T07:52:16.638Z,800.00
2023-01-26T07:53:15.863Z,842.00
2023-01-26T07:54:15.903Z,825.00
2023-01-26T07:55:15.988Z,902.00
2023-01-26T07:56:15.954Z,962.00
2023-01-26T07:57:16.010Z,1064.00
2023-01-26T07:58:16.040Z,1155.00
2023-01-26T07:59:16.049Z,1178.00
2023-01-26T08:00:16.106Z,1188.00
2023-01-26T08:01:16.165Z,1258.00
2023-01-26T08:02:16.173Z,1262.00
2023-01-26T08:03:16.161Z,1267.00
2023-01-26T08:04:16.211Z,1280.00
2023-01-26T08:05:16.273Z,1287.00
2023-01-26T08:06:16.281Z,1302.00
2023-01-26T08:13:23.534Z,1457.00
2023-01-26T08:15:16.495Z,1512.00
2023-01-26T08:16:16.541Z,1525.00
2023-01-26T08:17:16.469Z,1326.00
2023-01-26T08:20:16.451Z,1384.00
2023-01-26T08:21:16.447Z,1413.00
2023-01-26T08:22:16.434Z,1423.00
2023-01-26T08:23:16.426Z,1440.00
2023-01-26T08:24:16.592Z,1516.00
2023-01-26T08:25:16.436Z,1536.00
2023-01-26T08:26:16.497Z,1577.00
2023-01-26T08:27:16.481Z,1599.00
2023-01-26T08:28:16.508Z,1618.00
2023-01-26T08:29:16.521Z,1704.00
2023-01-26T08:30:16.546Z,1711.00
2023-01-26T08:31:16.675Z,1724.00
2023-01-26T08:32:16.579Z,1756.00
2023-01-26T08:33:16.607Z,1825.00
2023-01-26T08:34:16.562Z,1831.00
2023-01-26T08:35:16.599Z,1840.00
2023-01-26T08:36:16.628Z,1862.00
2023-01-26T08:37:16.675Z,1946.00
2023-01-26T08:38:16.716Z,1966.00
2023-01-26T08:39:16.776Z,1985.00
2023-01-26T08:40:16.845Z,2004.00
2023-01-26T08:41:16.893Z,2027.00
2023-01-26T08:42:16.941Z,2051.00
2023-01-26T08:43:16.969Z,2083.00
2023-01-26T08:44:16.998Z,2121.00
2023-01-26T08:45:17.050Z,2149.00
2023-01-26T08:46:17.127Z,2177.00
2023-01-26T08:47:17.098Z,2226.00
2023-01-26T08:48:17.142Z,2243.00
2023-01-26T08:49:17.141Z,2290.00
2023-01-26T08:50:17.165Z,2320.00
2023-01-26T08:51:17.204Z,2351.00
2023-01-26T08:52:17.235Z,2370.00
2023-01-26T08:53:17.252Z,2383.00
2023-01-26T08:54:17.283Z,2405.00
2023-01-26T08:55:17.331Z,2433.00
2023-01-26T08:56:17.337Z,2459.00
2023-01-26T08:57:17.393Z,2471.00
2023-01-26T08:58:17.418Z,2556.00
2023-01-26T08:59:17.446Z,2579.00
2023-01-26T09:00:17.466Z,2594.00
2023-01-26T09:01:17.631Z,2630.00
2023-01-26T09:02:17.604Z,2652.00
2023-01-26T09:03:17.778Z,2687.00
2023-01-26T09:04:17.628Z,2704.00
2023-01-26T09:05:17.651Z,2752.00
2023-01-26T09:06:17.643Z,2780.00
2023-01-26T09:07:17.679Z,2796.00
2023-01-26T09:08:17.728Z,2833.00
2023-01-26T09:09:17.789Z,2845.00
2023-01-26T09:10:17.804Z,2860.00
2023-01-26T09:11:17.816Z,2868.00
2023-01-26T09:12:17.838Z,2907.00
2023-01-26T09:13:17.901Z,2899.00
2023-01-26T09:14:17.920Z,2209.00
2023-01-26T09:15:17.954Z,1997.00
2023-01-26T09:16:18.017Z,1746.00
2023-01-26T09:17:18.079Z,1560.00
2023-01-26T09:18:18.108Z,1521.00
2023-01-26T09:19:18.132Z,1510.00
2023-01-26T09:20:18.169Z,1410.00
2023-01-26T09:21:18.145Z,1420.00
2023-01-26T09:22:18.157Z,1437.00
2023-01-26T09:23:18.183Z,1395.00
2023-01-26T09:24:18.285Z,1324.00
2023-01-26T09:25:18.207Z,1321.00
2023-01-26T09:26:18.199Z,1297.00
2023-01-26T09:27:18.246Z,1264.00
2023-01-26T09:28:18.284Z,1248.00
2023-01-26T09:29:18.352Z,1326.00
2023-01-26T09:30:18.449Z,1366.00
2023-01-26T09:31:18.451Z,1451.00
2023-01-26T09:32:18.383Z,1427.00
2023-01-26T09:33:20.177Z,1488.00
2023-01-26T09:34:18.581Z,1510.00
2023-01-26T09:35:18.988Z,1523.00
2023-01-26T09:36:19.187Z,1504.00
2023-01-26T09:37:18.525Z,1526.00
2023-01-26T09:38:18.545Z,1524.00
2023-01-26T09:39:18.550Z,1521.00
2023-01-26T09:40:18.553Z,1519.00
2023-01-26T09:41:18.591Z,1560.00
2023-01-26T09:42:18.615Z,1536.00
2023-01-26T09:43:18.676Z,1539.00
2023-01-26T09:44:18.736Z,1549.00
2023-01-26T09:45:18.784Z,1576.00
2023-01-26T11:51:21.823Z,1851.00
2023-01-26T11:52:21.472Z,1850.00
2023-01-26T11:53:21.507Z,1852.00
2023-01-26T11:54:21.559Z,1853.00
2023-01-26T11:55:21.602Z,1850.00
2023-01-26T11:56:21.619Z,1845.00
2023-01-26T11:57:21.656Z,1842.00
2023-01-26T11:58:21.687Z,1838.00
2023-01-26T11:59:21.699Z,1832.00
2023-01-26T12:00:30.105Z,1831.00
2023-01-26T12:02:21.782Z,1827.00
2023-01-26T12:03:21.725Z,1827.00
2023-01-26T12:05:21.685Z,1826.00
2023-01-26T12:11:21.648Z,1803.00
2023-01-26T12:12:21.633Z,1797.00
2023-01-26T12:13:21.632Z,1796.00
2023-01-26T12:14:21.638Z,1794.00
2023-01-26T12:15:21.613Z,1788.00
2023-01-26T12:16:21.736Z,1788.00
2023-01-26T12:17:21.668Z,1787.00
2023-01-26T12:18:21.605Z,1781.00
2023-01-26T12:19:21.589Z,1778.00
2023-01-26T12:20:21.581Z,1778.00
2023-01-26T12:21:21.581Z,1781.00
2023-01-26T12:22:22.438Z,1777.00
2023-01-26T12:23:21.584Z,1774.00
2023-01-26T12:24:48.505Z,1770.00
2023-01-26T12:25:22.565Z,1768.00
2023-01-26T12:26:21.549Z,1772.00
2023-01-26T12:27:21.548Z,1771.00
2023-01-26T12:28:21.552Z,1765.00
2023-01-26T12:29:21.529Z,1759.00
2023-01-26T12:30:21.564Z,1756.00
2023-01-26T12:31:21.647Z,1744.00
2023-01-26T12:32:21.507Z,1745.00
2023-01-26T12:33:21.509Z,1744.00
2023-01-26T12:34:21.495Z,1741.00
2023-01-26T12:35:21.483Z,1741.00
2023-01-26T12:36:21.570Z,1741.00
2023-01-26T12:37:21.464Z,1735.00
2023-01-26T12:38:21.465Z,1733.00
2023-01-26T12:39:22.328Z,1733.00
2023-01-26T12:40:21.444Z,1736.00
2023-01-26T12:41:21.430Z,1733.00
2023-01-26T12:42:21.425Z,1735.00
2023-01-26T12:43:21.419Z,1735.00
2023-01-26T12:44:21.423Z,1740.00
2023-01-26T12:45:21.502Z,1744.00
2023-01-26T12:55:21.414Z,1733.00
2023-01-26T12:56:21.436Z,1737.00
2023-01-26T12:57:21.514Z,1735.00
2023-01-26T12:58:21.507Z,1731.00
2023-01-26T12:59:38.561Z,1728.00
2023-01-26T13:00:22.429Z,1727.00
2023-01-26T13:01:21.459Z,1724.00
2023-01-26T13:11:21.841Z,1694.00
2023-01-26T13:23:21.423Z,1684.00
2023-01-26T13:24:21.537Z,1684.00
2023-01-26T13:25:21.453Z,1686.00
2023-01-26T13:26:21.490Z,1685.00
2023-01-26T13:27:21.490Z,1687.00
2023-01-26T13:28:21.501Z,1687.00
2023-01-26T13:29:21.535Z,1686.00
2023-01-26T13:30:21.569Z,1688.00
2023-01-26T13:31:21.585Z,1685.00
2023-01-26T13:32:21.582Z,1682.00
2023-01-26T13:33:21.602Z,1679.00
2023-01-26T13:34:21.624Z,1676.00
2023-01-26T13:35:21.852Z,1674.00
2023-01-26T13:36:21.641Z,1677.00
2023-01-26T13:37:21.717Z,1683.00
2023-01-26T13:38:21.662Z,1689.00
2023-01-26T13:39:21.680Z,1691.00
2023-01-26T13:40:21.712Z,1687.00
2023-01-26T13:41:21.731Z,1690.00
2023-01-26T13:42:21.712Z,1694.00
2023-01-26T13:43:27.185Z,1697.00
2023-01-26T13:45:21.772Z,1685.00
2023-01-26T13:46:21.797Z,1686.00
2023-01-26T13:47:21.759Z,1689.00
2023-01-26T13:48:21.756Z,1688.00
2023-01-26T13:49:21.747Z,1685.00
2023-01-26T13:50:21.806Z,1688.00
2023-01-26T13:51:21.738Z,1690.00
2023-01-26T13:57:21.706Z,1706.00
2023-01-26T13:58:21.693Z,1713.00
2023-01-26T14:00:21.672Z,1714.00
2023-01-26T14:01:21.716Z,1714.00
2023-01-26T14:02:21.749Z,1712.00
2023-01-26T14:03:21.656Z,1715.00
2023-01-26T14:04:21.761Z,1716.00
2023-01-26T14:07:21.621Z,1706.00
2023-01-26T14:08:21.616Z,1706.00
2023-01-26T14:09:21.613Z,1706.00
2023-01-26T14:10:22.627Z,1708.00
2023-01-26T14:11:21.683Z,1702.00
2023-01-26T14:12:21.592Z,1699.00
2023-01-26T14:13:21.577Z,1697.00
2023-01-26T14:14:21.570Z,1697.00
2023-01-26T14:15:21.565Z,1693.00
2023-01-26T14:16:21.585Z,1690.00
2023-01-26T14:17:21.638Z,1686.00
2023-01-26T14:18:21.547Z,1680.00
2023-01-26T14:19:21.542Z,1675.00
2023-01-26T14:20:21.546Z,1673.00
2023-01-26T14:21:21.562Z,1672.00
2023-01-26T14:22:22.387Z,1674.00
2023-01-26T14:23:21.511Z,1677.00
2023-01-26T14:24:21.601Z,1676.00
2023-01-26T14:25:21.505Z,1681.00
2023-01-26T14:26:21.498Z,1686.00
2023-01-26T14:27:21.483Z,1691.00
2023-01-26T14:28:21.473Z,1691.00
2023-01-26T14:29:21.459Z,1692.00
2023-01-26T14:30:21.499Z,1693.00
2023-01-26T14:31:21.459Z,1697.00
2023-01-26T14:32:21.454Z,1705.00
2023-01-26T14:33:21.444Z,1706.00
2023-01-26T14:34:21.479Z,1705.00
2023-01-26T14:35:21.481Z,1704.00
2023-01-26T14:36:21.514Z,1706.00
2023-01-26T14:37:21.509Z,1703.00
2023-01-26T14:38:21.518Z,1703.00
2023-01-26T14:39:21.547Z,1707.00
2023-01-26T14:40:21.570Z,1709.00
2023-01-26T14:41:21.594Z,1712.00
2023-01-26T14:42:21.616Z,1712.00
2023-01-26T14:43:21.671Z,1717.00
2023-01-26T14:44:21.655Z,1721.00
2023-01-26T14:45:21.683Z,1722.00
2023-01-26T14:46:21.762Z,1721.00
2023-01-26T14:47:21.708Z,1721.00
2023-01-26T14:48:21.730Z,1722.00
2023-01-26T14:49:21.757Z,1722.00
2023-01-26T14:50:21.775Z,1724.00
2023-01-26T14:51:21.945Z,1726.00
2023-01-26T14:52:21.799Z,1731.00
2023-01-26T14:53:21.976Z,1734.00
2023-01-26T14:54:21.899Z,1733.00
2023-01-26T14:55:22.878Z,1735.00
2023-01-26T14:56:21.931Z,1734.00
2023-01-26T14:57:21.937Z,1737.00
2023-01-26T14:58:22.044Z,1737.00
2023-01-26T14:59:22.045Z,1734.00
2023-01-26T15:00:22.029Z,1736.00
2023-01-26T15:01:22.024Z,1738.00
2023-01-26T15:02:22.152Z,1741.00
2023-01-26T15:03:22.055Z,1743.00
2023-01-26T15:04:22.077Z,1739.00
2023-01-26T15:05:22.097Z,1740.00
2023-01-26T15:06:22.877Z,1739.00
2023-01-26T15:07:22.148Z,1741.00
2023-01-26T15:08:22.166Z,1736.00
2023-01-26T15:09:22.203Z,1730.00
2023-01-26T15:10:22.215Z,1728.00
2023-01-26T15:11:22.240Z,1725.00
2023-01-26T15:12:22.396Z,1720.00
2023-01-26T15:13:22.295Z,1715.00
2023-01-26T15:14:22.314Z,1713.00
2023-01-26T15:15:22.347Z,1710.00
2023-01-26T15:16:22.421Z,1710.00
2023-01-26T15:17:22.385Z,1707.00
2023-01-26T15:18:22.407Z,1710.00
2023-01-26T15:19:22.420Z,1711.00
2023-01-26T15:20:22.451Z,1710.00
2023-01-26T15:21:23.420Z,1705.00
2023-01-26T15:22:22.498Z,1704.00
2023-01-26T15:23:23.484Z,1702.00
2023-01-26T15:24:22.547Z,1699.00
2023-01-26T15:25:22.483Z,1695.00
2023-01-26T15:26:22.467Z,1689.00
2023-01-26T15:27:22.456Z,1686.00
2023-01-26T15:28:22.450Z,1685.00
2023-01-26T15:29:22.443Z,1681.00
2023-01-26T15:30:22.443Z,1675.00
2023-01-26T15:31:22.564Z,1675.00
2023-01-26T15:32:22.431Z,1674.00
2023-01-26T15:33:22.424Z,1672.00
2023-01-26T15:34:22.424Z,1670.00
2023-01-26T15:35:22.413Z,1663.00
2023-01-26T15:36:22.394Z,1661.00
2023-01-26T15:37:22.895Z,1656.00
2023-01-26T15:38:22.396Z,1652.00
2023-01-26T15:39:22.459Z,1646.00
2023-01-26T15:40:22.400Z,1636.00
2023-01-26T15:41:22.378Z,1631.00
2023-01-26T15:42:22.374Z,1636.00
2023-01-26T15:43:22.378Z,1638.00
2023-01-26T15:44:22.416Z,1637.00
2023-01-26T15:45:22.423Z,1636.00
2023-01-26T15:46:22.472Z,1634.00
2023-01-26T15:47:22.494Z,1631.00
2023-01-26T15:48:22.525Z,1630.00
2023-01-26T15:49:22.544Z,1626.00
2023-01-26T15:50:28.091Z,1630.00
2023-01-26T15:51:23.564Z,1631.00
2023-01-26T15:52:22.564Z,1631.00
2023-01-26T15:53:22.567Z,1631.00
2023-01-26T15:54:22.546Z,1629.00
2023-01-26T15:55:22.544Z,1628.00
2023-01-26T15:56:22.535Z,1624.00
2023-01-26T15:57:22.934Z,1618.00
2023-01-26T15:58:22.528Z,1613.00
2023-01-26T15:59:22.571Z,1604.00
2023-01-26T16:00:22.520Z,1598.00
2023-01-26T16:01:22.496Z,1595.00
2023-01-26T16:02:22.532Z,1597.00
2023-01-26T16:03:22.682Z,1591.00
2023-01-26T16:04:22.592Z,1591.00
2023-01-26T16:05:22.643Z,1582.00
2023-01-26T16:06:22.685Z,1500.00
2023-01-26T16:07:22.720Z,1488.00
2023-01-26T16:08:22.793Z,1482.00
2023-01-26T16:09:22.851Z,1389.00
2023-01-26T16:10:22.899Z,1369.00
2023-01-26T16:11:22.963Z,1374.00
2023-01-26T16:12:31.565Z,1436.00
2023-01-26T16:13:24.013Z,1435.00
2023-01-26T16:14:23.002Z,1431.00
2023-01-26T16:15:23.055Z,1433.00
2023-01-26T16:16:23.092Z,1441.00
2023-01-26T16:17:22.985Z,1443.00
2023-01-26T16:18:22.984Z,1448.00
2023-01-26T16:19:34.771Z,1446.00
2023-01-26T16:20:23.967Z,1447.00
2023-01-26T16:21:22.948Z,1448.00
2023-01-26T16:22:22.958Z,1445.00
2023-01-26T16:23:22.967Z,1443.00
2023-01-26T16:24:23.015Z,1441.00
2023-01-26T16:25:22.925Z,1439.00
2023-01-26T16:26:22.927Z,1440.00
2023-01-26T16:27:22.916Z,1438.00
2023-01-26T16:28:22.946Z,1431.00
2023-01-26T16:29:23.011Z,1428.00
2023-01-26T16:30:23.048Z,1426.00
2023-01-26T16:31:23.268Z,1420.00
2023-01-26T16:32:23.168Z,1419.00
2023-01-26T16:33:23.223Z,1417.00
2023-01-26T16:34:23.303Z,1415.00
2023-01-26T16:35:23.361Z,1418.00
2023-01-26T16:36:23.420Z,1417.00
2023-01-26T16:37:23.552Z,1415.00
2023-01-26T16:38:23.522Z,1412.00
2023-01-26T16:39:23.591Z,1410.00
2023-01-26T16:40:23.649Z,1408.00
2023-01-26T16:41:23.716Z,1405.00
2023-01-26T16:42:23.772Z,1402.00
2023-01-26T16:43:24.323Z,1402.00
2023-01-26T16:44:23.892Z,1398.00
2023-01-26T16:45:23.944Z,1395.00
2023-01-26T16:46:24.012Z,1395.00
2023-01-26T16:47:24.086Z,1392.00
2023-01-26T16:48:24.145Z,1391.00
2023-01-26T16:49:24.188Z,1391.00
2023-01-26T16:50:24.241Z,1388.00
2023-01-26T16:51:24.300Z,1390.00
2023-01-26T16:52:24.360Z,1393.00
2023-01-26T16:53:24.419Z,1394.00
2023-01-26T17:26:25.404Z,1329.00
2023-01-26T17:27:25.441Z,1325.00
2023-01-26T17:28:25.451Z,1322.00
2023-01-26T17:29:25.467Z,1317.00
2023-01-26T17:30:25.547Z,1316.00
2023-01-26T17:31:25.594Z,1312.00
2023-01-26T17:32:25.577Z,1310.00
2023-01-26T17:33:25.580Z,1308.00
2023-01-26T17:34:25.617Z,1308.00
2023-01-26T17:35:25.717Z,1307.00
2023-01-26T17:36:25.658Z,1301.00
2023-01-26T17:37:25.781Z,1303.00
2023-01-26T17:38:25.710Z,1302.00
2023-01-26T17:39:25.742Z,1302.00
2023-01-26T17:40:25.799Z,1303.00
2023-01-26T17:41:25.815Z,1300.00
2023-01-26T17:42:25.862Z,1299.00
2023-01-26T17:43:25.838Z,1299.00
2023-01-26T17:44:25.857Z,1296.00
2023-01-26T17:45:25.880Z,1297.00
2023-01-26T17:46:25.878Z,1299.00
2023-01-26T17:47:25.884Z,1294.00
2023-01-26T17:48:25.872Z,1288.00
2023-01-26T17:49:25.872Z,1286.00
2023-01-26T17:50:25.891Z,1283.00
2023-01-26T17:51:25.916Z,1283.00
2023-01-26T17:52:25.906Z,1282.00
2023-01-26T17:53:25.921Z,1282.00
2023-01-26T17:54:25.922Z,1282.00
2023-01-26T17:55:25.928Z,1280.00
2023-01-26T17:56:25.932Z,1281.00
2023-01-26T17:57:25.931Z,1281.00
2023-01-26T17:58:25.948Z,1280.00
2023-01-26T17:59:25.971Z,1279.00
2023-01-26T18:00:25.988Z,1283.00
2023-01-26T18:01:26.052Z,1283.00
2023-01-26T18:02:26.114Z,1280.00
2023-01-26T18:03:26.017Z,1280.00
2023-01-26T18:04:26.078Z,1280.00
2023-01-26T18:05:26.066Z,1278.00
2023-01-26T18:06:26.017Z,1274.00
2023-01-26T18:07:26.024Z,1271.00
2023-01-26T18:08:26.036Z,1268.00
2023-01-26T18:09:26.045Z,1265.00
2023-01-26T18:10:26.051Z,1259.00
2023-01-26T18:11:26.090Z,1256.00
2023-01-26T18:12:26.110Z,1258.00
2023-01-26T18:13:26.117Z,1262.00
2023-01-26T18:14:26.461Z,1259.00
2023-01-26T18:15:26.147Z,1259.00
2023-01-26T18:16:26.202Z,1257.00
2023-01-26T18:17:26.169Z,1255.00
2023-01-26T18:18:26.177Z,1254.00
2023-01-26T18:19:26.226Z,1253.00
2023-01-26T18:20:26.180Z,1253.00
2023-01-26T18:21:26.184Z,1254.00
2023-01-26T18:22:26.189Z,1253.00
2023-01-26T18:23:26.179Z,1253.00
2023-01-26T18:24:26.200Z,1251.00
2023-01-26T18:25:26.181Z,1249.00
2023-01-26T18:26:26.197Z,1252.00